Time;durP1;ratioP1;P1;durP2;ratioP2;P2;SDS_P1;SDS_P2;PMS_P1;PMS_P2;Temp;Humidity;BMP_temperature;BMP_pressure;BME280_temperature;BME280_humidity;BME280_pressure;Samples;Min_cycle;Max_cycle;Signal;HPM_P1;HPM_P2
2022/05/06 00:01:03;;;;;;;;;6.80;6.80;;;;;8.94;59.61;100708.16;5024567;28;8828;-62
2022/05/06 00:03:31;;;;;;;;;4.00;4.00;;;;;8.95;59.70;100710.72;5038930;28;8872;-63
2022/05/06 00:05:59;;;;;;;;;4.00;3.40;;;;;8.96;59.27;100708.94;5039218;28;8836;-62
2022/05/06 00:08:26;;;;;;;;;6.00;6.00;;;;;8.96;59.53;100707.09;5038661;28;8866;-62
2022/05/06 00:10:55;;;;;;;;;2.60;2.20;;;;;8.99;59.61;100709.59;5033887;28;8866;-62
2022/05/06 00:13:22;;;;;;;;;5.60;5.60;;;;;8.97;59.38;100705.31;5018966;28;9077;-62
2022/05/06 00:15:50;;;;;;;;;6.40;5.40;;;;;8.94;59.49;100711.66;5018832;28;8880;-62
2022/05/06 00:18:18;;;;;;;;;7.00;7.00;;;;;8.88;59.72;100706.72;5018991;28;8847;-62
2022/05/06 00:20:46;;;;;;;;;5.20;4.80;;;;;8.86;59.45;100707.75;5021094;28;8860;-63
2022/05/06 00:23:14;;;;;;;;;6.40;4.80;;;;;8.83;59.61;100707.94;5037154;28;8868;-63
2022/05/06 00:25:42;;;;;;;;;6.00;5.60;;;;;8.82;59.94;100714.22;5037740;28;8857;-63
2022/05/06 00:28:09;;;;;;;;;3.80;3.20;;;;;8.81;59.63;100708.03;5038857;28;9522;-62
2022/05/06 00:30:37;;;;;;;;;4.00;3.80;;;;;8.81;59.76;100707.19;5036940;28;8955;-62
2022/05/06 00:33:07;;;;;;;;;6.20;6.20;;;;;8.79;59.50;100709.94;5018545;28;8827;-62
2022/05/06 00:35:35;;;;;;;;;6.00;6.00;;;;;8.76;59.79;100710.13;5018993;28;8843;-63
2022/05/06 00:38:02;;;;;;;;;4.00;4.00;;;;;8.74;59.20;100709.34;5018326;28;8842;-63
2022/05/06 00:40:30;;;;;;;;;7.40;5.40;;;;;8.71;59.76;100714.84;5018541;28;8870;-62
2022/05/06 00:42:58;;;;;;;;;4.00;3.20;;;;;8.68;59.79;100715.00;5038522;28;8852;-62
2022/05/06 00:45:26;;;;;;;;;8.20;7.40;;;;;8.67;60.11;100715.97;5038005;28;8856;-63
2022/05/06 00:47:53;;;;;;;;;6.20;6.20;;;;;8.65;60.11;100709.91;5019905;28;8949;-62
2022/05/06 00:50:22;;;;;;;;;4.00;4.00;;;;;8.64;59.83;100713.50;5017884;28;8986;-62
2022/05/06 00:52:49;;;;;;;;;5.80;4.20;;;;;8.62;60.00;100714.53;5018372;28;8988;-63
2022/05/06 00:55:17;;;;;;;;;6.60;6.20;;;;;8.57;59.97;100714.81;5018631;28;8863;-63
2022/05/06 00:57:45;;;;;;;;;10.00;6.20;;;;;8.54;60.18;100708.81;5034259;28;8967;-66
2022/05/06 01:00:23;;;;;;;;;5.80;5.60;;;;;8.50;60.67;100707.31;5038004;28;8837;-63
2022/05/06 01:02:51;;;;;;;;;2.60;2.60;;;;;8.46;60.29;100705.78;5037838;28;8868;-62
2022/05/06 01:05:19;;;;;;;;;3.20;3.20;;;;;8.42;60.35;100707.75;5038128;28;8905;-62
2022/05/06 01:07:47;;;;;;;;;4.00;3.80;;;;;8.39;60.58;100707.94;5021094;28;8835;-63
2022/05/06 01:10:15;;;;;;;;;6.00;4.40;;;;;8.38;60.32;100705.38;5018577;28;8854;-62
2022/05/06 01:12:43;;;;;;;;;3.40;3.00;;;;;8.36;60.61;100702.78;5017976;28;9833;-62
2022/05/06 01:15:10;;;;;;;;;6.00;6.00;;;;;8.35;60.31;100706.41;5018411;28;8938;-63
2022/05/06 01:17:38;;;;;;;;;3.40;2.60;;;;;8.33;60.58;100710.94;5018789;28;8857;-62
2022/05/06 01:20:06;;;;;;;;;5.60;4.00;;;;;8.32;60.60;100708.38;5018141;28;8835;-63
2022/05/06 01:22:34;;;;;;;;;6.80;6.00;;;;;8.29;60.58;100709.41;5017445;28;8960;-62
2022/05/06 01:25:01;;;;;;;;;4.40;4.40;;;;;8.26;60.53;100712.25;5018026;28;8985;-63
2022/05/06 01:27:29;;;;;;;;;5.40;4.80;;;;;8.24;60.81;100711.50;5033611;28;8944;-63
2022/05/06 01:29:57;;;;;;;;;5.20;4.00;;;;;8.22;61.02;100710.69;5037550;28;8833;-63
2022/05/06 01:32:26;;;;;;;;;1.00;0.00;;;;;8.20;61.12;100717.91;5037068;28;8867;-62
2022/05/06 01:34:54;;;;;;;;;6.60;5.80;;;;;8.14;60.58;100718.22;5036552;28;8859;-62
2022/05/06 01:37:22;;;;;;;;;4.40;4.40;;;;;8.07;60.84;100718.66;5021045;28;9009;-63
2022/05/06 01:39:52;;;;;;;;;2.60;0.00;;;;;8.02;60.50;100721.59;5017240;28;8869;-62
2022/05/06 01:42:21;;;;;;;;;3.20;3.00;;;;;7.97;60.99;100720.97;5017663;28;8846;-62
2022/05/06 01:44:50;;;;;;;;;6.20;4.40;;;;;7.93;61.04;100730.06;5017376;28;8850;-63
2022/05/06 01:47:18;;;;;;;;;6.00;4.80;;;;;7.89;61.53;100719.69;5031778;28;8825;-62
2022/05/06 01:49:46;;;;;;;;;4.00;4.00;;;;;7.84;61.17;100722.59;5036924;28;8971;-63
2022/05/06 01:52:14;;;;;;;;;6.00;5.60;;;;;7.82;61.53;100720.97;5036709;28;8837;-63
2022/05/06 01:54:42;;;;;;;;;5.20;5.20;;;;;7.80;61.56;100726.38;5037085;28;9032;-62
2022/05/06 01:57:09;;;;;;;;;6.00;4.00;;;;;7.80;61.19;100728.16;5023721;28;8945;-62
2022/05/06 01:59:37;;;;;;;;;6.00;4.00;;;;;7.80;61.46;100726.38;5017464;28;8858;-63
2022/05/06 02:02:06;;;;;;;;;6.20;6.20;;;;;7.79;61.20;100724.69;5016224;28;8857;-63
2022/05/06 02:07:15;;;;;;;;;6.00;4.80;;;;;7.78;61.40;100720.31;5021585;28;8963;-62
2022/05/06 02:09:44;;;;;;;;;4.00;4.00;;;;;7.79;61.33;100721.16;5036737;28;8984;-62
2022/05/06 02:12:12;;;;;;;;;2.20;1.80;;;;;7.79;61.42;100722.03;5036626;28;8876;-62
2022/05/06 02:14:39;;;;;;;;;6.00;6.00;;;;;7.79;61.34;100719.38;5036593;28;8875;-63
2022/05/06 02:17:07;;;;;;;;;6.80;6.60;;;;;7.78;61.31;100722.97;5023891;28;8986;-63
2022/05/06 02:19:35;;;;;;;;;6.00;6.00;;;;;7.78;61.58;100727.41;5016873;28;8969;-63
2022/05/06 02:22:03;;;;;;;;;9.60;7.00;;;;;7.76;61.60;100722.16;5016784;28;9652;-63
2022/05/06 02:24:39;;;;;;;;;3.40;3.40;;;;;7.75;61.08;100714.34;5176032;27;8827;-64
2022/05/06 02:27:06;;;;;;;;;3.00;3.00;;;;;7.72;61.29;100728.59;5154084;27;8819;-64
2022/05/06 02:29:34;;;;;;;;;3.00;3.00;;;;;7.66;61.09;100736.03;5154709;27;8838;-64
2022/05/06 02:34:47;;;;;;;;;6.00;4.00;;;;;7.48;62.29;100733.53;5154250;27;8834;-65
2022/05/06 02:37:15;;;;;;;;;5.80;5.60;;;;;7.40;61.84;100738.38;5140155;27;8813;-64
2022/05/06 02:39:43;;;;;;;;;4.40;4.40;;;;;7.36;62.21;100740.34;5133929;27;8837;-64
2022/05/06 02:42:11;;;;;;;;;5.60;5.00;;;;;7.31;62.29;100738.88;5133276;27;8814;-64
2022/05/06 02:44:38;;;;;;;;;6.40;6.40;;;;;7.28;62.01;100736.41;5133040;27;8837;-64
2022/05/06 02:47:06;;;;;;;;;4.00;4.00;;;;;7.27;61.79;100740.00;5145199;27;8803;-64
2022/05/06 02:49:34;;;;;;;;;3.60;3.20;;;;;7.25;61.91;100733.91;5154099;27;8826;-64
2022/05/06 02:52:04;;;;;;;;;7.40;7.40;;;;;7.23;62.39;100735.78;5154679;27;8838;-64
2022/05/06 02:54:32;;;;;;;;;6.40;6.00;;;;;7.22;61.98;100734.06;5154514;27;8846;-65
2022/05/06 02:57:00;;;;;;;;;5.20;4.80;;;;;7.21;62.58;100732.38;5142953;27;8825;-63
2022/05/06 02:59:31;;;;;;;;;3.80;2.60;;;;;7.21;62.29;100732.38;5133759;27;8849;-64
2022/05/06 03:01:59;;;;;;;;;5.60;3.80;;;;;7.22;62.02;100728.78;5133540;27;8829;-64
2022/05/06 03:04:27;;;;;;;;;5.60;4.00;;;;;7.23;62.54;100733.13;5133025;27;8879;-64
2022/05/06 03:06:55;;;;;;;;;7.20;6.80;;;;;7.22;62.50;100728.78;5142538;27;8813;-64
2022/05/06 03:09:23;;;;;;;;;6.40;5.40;;;;;7.24;62.11;100725.13;5154165;27;8961;-64
2022/05/06 03:11:51;;;;;;;;;7.80;4.80;;;;;7.24;62.38;100724.25;5154036;27;8839;-64
2022/05/06 03:14:19;;;;;;;;;1.00;1.00;;;;;7.22;62.28;100721.72;5153901;27;8961;-64
2022/05/06 03:16:46;;;;;;;;;6.00;6.00;;;;;7.21;62.29;100724.44;5145569;27;8955;-64
2022/05/06 03:19:14;;;;;;;;;7.40;7.00;;;;;7.17;62.25;100722.88;5132921;27;8955;-63
2022/05/06 03:21:42;;;;;;;;;4.00;3.60;;;;;7.12;62.58;100716.97;5133100;27;8829;-64
2022/05/06 03:24:11;;;;;;;;;6.00;6.00;;;;;7.05;62.26;100724.38;5132784;27;9028;-63
2022/05/06 03:26:38;;;;;;;;;5.60;4.00;;;;;6.98;62.19;100720.34;5139515;27;8851;-63
2022/05/06 03:29:07;;;;;;;;;4.00;4.00;;;;;6.94;62.26;100717.94;5153753;27;8953;-63
2022/05/06 03:31:36;;;;;;;;;3.20;3.20;;;;;6.89;62.46;100720.81;5153689;27;8822;-64
2022/05/06 03:34:05;;;;;;;;;6.80;6.20;;;;;6.87;62.66;100721.84;5150837;27;9616;-64
2022/05/06 03:36:33;;;;;;;;;3.00;3.00;;;;;6.85;62.75;100719.28;5133222;27;8810;-63
2022/05/06 03:39:02;;;;;;;;;4.00;4.00;;;;;6.82;62.44;100710.66;5119187;28;8825;-63
2022/05/06 03:41:30;;;;;;;;;6.00;4.80;;;;;6.78;62.89;100714.38;5119067;28;8853;-63
2022/05/06 03:43:58;;;;;;;;;6.00;4.40;;;;;6.76;63.26;100719.75;5118645;28;8910;-64
2022/05/06 03:46:26;;;;;;;;;3.60;3.60;;;;;6.75;62.71;100717.19;5122948;27;8849;-63
2022/05/06 03:48:54;;;;;;;;;4.00;4.00;;;;;6.74;62.83;100720.78;5139402;27;8914;-63
2022/05/06 03:51:24;;;;;;;;;6.00;6.00;;;;;6.75;63.32;100722.47;5139492;27;8831;-64
2022/05/06 03:53:51;;;;;;;;;4.80;4.80;;;;;6.74;63.10;100724.25;5139582;27;8989;-64
2022/05/06 03:56:19;;;;;;;;;4.40;4.40;;;;;6.73;62.76;100719.91;5135779;27;8826;-64
2022/05/06 03:58:47;;;;;;;;;5.20;4.80;;;;;6.71;63.17;100727.06;5117266;28;8876;-64
2022/05/06 04:01:16;;;;;;;;;4.00;4.00;;;;;6.69;62.81;100726.28;5117723;28;8821;-64
2022/05/06 04:03:44;;;;;;;;;3.80;3.80;;;;;6.70;62.46;100729.78;5118091;28;8921;-63
2022/05/06 04:06:13;;;;;;;;;5.60;4.00;;;;;6.71;62.97;100731.50;5120093;27;8922;-65
2022/05/06 04:08:42;;;;;;;;;6.00;5.20;;;;;6.70;62.59;100732.44;5138908;27;8850;-63
2022/05/06 04:11:10;;;;;;;;;9.40;8.60;;;;;6.71;63.07;100740.31;5138617;27;8971;-65
2022/05/06 04:13:38;;;;;;;;;6.00;6.00;;;;;6.75;62.86;100733.06;5139438;27;8823;-64
2022/05/06 04:16:07;;;;;;;;;6.20;5.60;;;;;6.79;62.85;100739.91;5138036;27;8943;-63
2022/05/06 04:18:35;;;;;;;;;6.40;6.00;;;;;6.82;62.84;100737.94;5135211;27;8894;-64
2022/05/06 04:23:49;;;;;;;;;6.00;5.20;;;;;6.88;62.59;100739.41;5138600;27;9508;-64
2022/05/06 04:26:16;;;;;;;;;4.20;3.80;;;;;6.91;62.77;100740.13;5136211;27;8837;-65
2022/05/06 04:28:44;;;;;;;;;8.00;6.80;;;;;6.93;62.32;100732.97;5117652;28;8905;-64
2022/05/06 04:31:12;;;;;;;;;6.40;6.40;;;;;6.99;62.63;100742.38;5118062;28;8833;-63
2022/05/06 04:33:40;;;;;;;;;2.20;0.60;;;;;7.05;62.03;100739.41;5117940;28;8825;-62
2022/05/06 04:36:09;;;;;;;;;7.00;6.00;;;;;7.10;62.34;100750.59;5118323;27;8947;-62
2022/05/06 04:38:37;;;;;;;;;5.60;3.60;;;;;7.15;61.88;100744.16;5138595;27;9548;-63
2022/05/06 04:41:05;;;;;;;;;4.80;4.80;;;;;7.23;61.66;100747.25;5138582;27;8830;-63
2022/05/06 04:43:33;;;;;;;;;6.00;5.60;;;;;7.32;62.06;100753.84;5138322;27;8865;-63
2022/05/06 04:46:00;;;;;;;;;3.00;3.00;;;;;7.40;61.13;100751.63;5136968;27;8849;-63
2022/05/06 04:48:29;;;;;;;;;6.80;6.80;;;;;7.47;61.43;100760.97;5137350;27;8903;-63
2022/05/06 04:50:57;;;;;;;;;1.80;0.60;;;;;7.51;61.33;100762.53;5137883;27;8838;-62
2022/05/06 04:53:25;;;;;;;;;5.20;3.80;;;;;7.56;61.31;100755.16;5138241;27;9512;-63
2022/05/06 04:55:52;;;;;;;;;4.00;4.00;;;;;7.60;61.25;100760.22;5137823;27;8846;-64
2022/05/06 04:58:20;;;;;;;;;0.20;0.20;;;;;7.66;61.15;100764.34;5118120;27;8830;-63
2022/05/06 05:00:48;;;;;;;;;4.20;4.20;;;;;7.72;61.04;100768.38;5116103;28;8837;-63
2022/05/06 05:03:18;;;;;;;;;6.60;5.60;;;;;7.79;60.95;100771.53;5116691;28;8825;-63
2022/05/06 05:05:47;;;;;;;;;6.40;5.60;;;;;7.85;60.64;100764.06;5116636;28;9609;-62
2022/05/06 05:08:14;;;;;;;;;0.00;0.00;;;;;7.93;60.46;100775.16;5134413;27;8814;-62
2022/05/06 05:10:43;;;;;;;;;5.60;5.60;;;;;8.04;60.45;100774.50;5136949;27;8977;-62
2022/05/06 05:13:10;;;;;;;;;5.60;4.80;;;;;8.15;60.28;100767.66;5137570;27;8845;-63
2022/05/06 05:15:38;;;;;;;;;7.00;6.00;;;;;8.26;59.93;100773.28;5136879;27;8823;-63
2022/05/06 05:18:07;;;;;;;;;6.40;5.60;;;;;8.40;59.58;100775.13;5119652;27;8821;-63
2022/05/06 05:20:34;;;;;;;;;3.00;1.00;;;;;8.52;59.67;100772.63;5115999;28;8825;-62
2022/05/06 05:23:02;;;;;;;;;8.80;8.40;;;;;8.68;59.36;100770.78;5116087;28;8938;-63
2022/05/06 05:25:30;;;;;;;;;9.40;8.60;;;;;8.82;59.15;100769.97;5115842;28;8910;-63
2022/05/06 05:27:58;;;;;;;;;4.80;4.80;;;;;8.96;58.92;100770.03;5116786;27;8922;-63
2022/05/06 05:30:26;;;;;;;;;8.20;8.20;;;;;9.10;58.94;100773.53;5116332;28;9000;-63
2022/05/06 05:32:53;;;;;;;;;4.00;3.20;;;;;9.26;58.80;100773.47;5116713;28;8894;-63
2022/05/06 05:35:22;;;;;;;;;9.60;9.00;;;;;9.39;58.34;100767.31;5115756;28;8817;-63
2022/05/06 05:37:49;;;;;;;;;8.60;8.60;;;;;9.53;58.28;100771.75;5129167;27;8819;-63
2022/05/06 05:40:17;;;;;;;;;7.80;7.80;;;;;9.68;58.00;100774.34;5136650;27;8819;-64
2022/05/06 05:42:45;;;;;;;;;9.20;9.00;;;;;9.83;57.71;100772.50;5136520;27;8949;-63
2022/05/06 05:50:43;;;;;;;;;6.00;6.00;;;;;10.23;56.95;100783.19;5114866;28;8862;-63
2022/05/06 05:53:11;;;;;;;;;9.40;9.00;;;;;10.35;57.09;100774.44;5115323;28;8861;-63
2022/05/06 05:55:39;;;;;;;;;11.50;9.00;;;;;10.46;56.84;100769.25;5115660;28;8825;-64
2022/05/06 05:58:07;;;;;;;;;8.20;7.00;;;;;10.60;56.73;100769.19;5114638;28;8855;-63
2022/05/06 06:00:36;;;;;;;;;8.00;7.00;;;;;10.73;56.63;100772.75;5124713;27;8827;-63
2022/05/06 06:03:03;;;;;;;;;8.00;8.00;;;;;10.90;56.61;100769.78;5130912;27;8904;-64
2022/05/06 06:05:31;;;;;;;;;8.20;8.20;;;;;11.06;56.79;100770.44;5114616;28;8902;-64
2022/05/06 06:07:59;;;;;;;;;8.50;8.50;;;;;11.24;56.17;100768.34;5115139;28;8837;-63
2022/05/06 06:10:28;;;;;;;;;9.00;8.00;;;;;11.39;56.24;100773.44;5118033;27;8857;-63
2022/05/06 06:12:57;;;;;;;;;6.00;6.00;;;;;11.50;55.76;100764.69;5134770;27;8830;-64
2022/05/06 06:15:25;;;;;;;;;6.50;6.50;;;;;11.58;55.82;100765.03;5135039;27;8858;-64
2022/05/06 06:17:52;;;;;;;;;9.00;9.00;;;;;11.64;56.07;100768.16;5135523;27;8874;-63
2022/05/06 06:20:21;;;;;;;;;8.50;7.50;;;;;11.76;55.81;100767.25;5132670;27;8907;-64
2022/05/06 06:22:49;;;;;;;;;4.50;4.00;;;;;11.94;55.50;100768.63;5120185;27;9760;-63
2022/05/06 06:25:17;;;;;;;;;7.25;6.75;;;;;12.09;55.25;100764.84;5124818;28;8972;-63
2022/05/06 06:27:45;;;;;;;;;7.50;6.25;;;;;12.24;54.95;100766.41;5128390;27;8861;-63
2022/05/06 06:30:13;;;;;;;;;7.50;7.00;;;;;12.37;55.28;100769.84;5134883;27;8847;-64
2022/05/06 06:32:51;;;;;;;;;9.00;9.00;;;;;12.49;54.86;100764.47;5125541;28;8825;-63
2022/05/06 06:35:19;;;;;;;;;8.00;6.50;;;;;12.64;55.00;100767.81;5114983;28;8972;-63
2022/05/06 06:37:47;;;;;;;;;8.00;6.75;;;;;12.82;54.33;100761.06;5113948;28;8833;-63
2022/05/06 06:40:15;;;;;;;;;8.00;7.50;;;;;12.98;54.72;100759.00;5114295;28;8848;-63
2022/05/06 06:42:46;;;;;;;;;2.00;2.00;;;;;13.12;54.46;100764.97;5129886;27;8810;-63
2022/05/06 06:45:13;;;;;;;;;6.00;6.00;;;;;13.23;54.19;100762.31;5134452;27;8973;-63
2022/05/06 06:47:43;;;;;;;;;14.50;10.50;;;;;13.33;53.69;100766.00;5135290;27;8859;-64
2022/05/06 06:50:10;;;;;;;;;7.50;7.00;;;;;13.44;53.79;100774.03;5134585;27;8977;-64
2022/05/06 06:52:38;;;;;;;;;5.00;5.00;;;;;13.54;53.54;100775.03;5119727;27;8926;-64
2022/05/06 06:55:06;;;;;;;;;9.50;8.50;;;;;13.66;53.30;100771.38;5113239;28;8976;-63
2022/05/06 06:57:34;;;;;;;;;8.00;6.00;;;;;13.82;53.54;100785.25;5113455;28;8902;-63
2022/05/06 07:00:02;;;;;;;;;8.00;8.00;;;;;13.98;53.24;100766.97;5113465;28;8844;-63
2022/05/06 07:02:32;;;;;;;;;12.00;10.50;;;;;14.17;52.50;100774.38;5126722;27;8823;-65
2022/05/06 07:05:00;;;;;;;;;9.25;8.50;;;;;14.35;52.81;100776.44;5133967;27;8847;-63
2022/05/06 07:13:20;;;;;;;;;8.50;8.00;;;;;14.98;51.72;100775.59;5117990;27;8825;-63
2022/05/06 07:15:48;;;;;;;;;6.00;6.00;;;;;15.15;51.32;100773.19;5117025;28;8871;-63
2022/05/06 07:18:16;;;;;;;;;9.25;7.00;;;;;15.34;51.03;100772.50;5117209;28;8841;-63
2022/05/06 07:20:43;;;;;;;;;9.25;9.25;;;;;15.51;51.24;100772.78;5126933;27;8873;-64
2022/05/06 07:23:11;;;;;;;;;9.75;9.00;;;;;15.70;50.64;100759.41;5137872;27;8831;-63
2022/05/06 07:25:39;;;;;;;;;11.00;9.50;;;;;15.86;50.87;100769.69;5137240;27;8831;-63
2022/05/06 07:28:08;;;;;;;;;12.50;12.00;;;;;16.00;50.41;100766.63;5137957;27;9516;-64
2022/05/06 07:30:35;;;;;;;;;9.00;7.00;;;;;16.14;50.48;100769.78;5129010;27;8852;-64
2022/05/06 07:33:03;;;;;;;;;12.00;10.50;;;;;16.26;50.70;100766.00;5117329;28;8879;-63
2022/05/06 07:35:38;;;;;;;;;12.25;11.00;;;;;16.41;50.28;100761.97;5116700;28;8839;-63
2022/05/06 07:38:06;;;;;;;;;7.50;7.50;;;;;16.54;49.89;100763.38;5117286;28;8845;-64
2022/05/06 07:40:34;;;;;;;;;12.25;11.00;;;;;16.70;49.48;100754.78;5125518;27;8911;-63
2022/05/06 07:43:02;;;;;;;;;12.00;10.00;;;;;16.84;49.49;100762.41;5138039;27;8845;-64
2022/05/06 07:45:30;;;;;;;;;12.00;10.00;;;;;16.99;49.28;100760.97;5137917;27;8973;-64
2022/05/06 07:47:58;;;;;;;;;5.50;5.50;;;;;17.14;49.19;100762.25;5138603;27;8839;-64
2022/05/06 07:50:33;;;;;;;;;10.25;9.25;;;;;17.30;49.28;100766.06;5130768;27;8947;-64
2022/05/06 07:53:00;;;;;;;;;11.50;10.50;;;;;17.46;49.15;100766.34;5117734;28;8853;-64
2022/05/06 07:55:29;;;;;;;;;11.25;10.00;;;;;17.60;49.22;100771.25;5117524;28;8832;-63
2022/05/06 07:57:58;;;;;;;;;9.00;9.00;;;;;17.72;48.73;100763.84;5117702;28;8845;-64
2022/05/06 08:00:26;;;;;;;;;6.75;6.75;;;;;17.84;48.67;100763.50;5122994;27;8879;-64
2022/05/06 08:05:40;;;;;;;;;6.75;6.25;;;;;18.13;48.69;100761.53;5137162;27;8847;-64
2022/05/06 08:08:07;;;;;;;;;6.00;4.00;;;;;18.28;48.62;100762.72;5136258;27;8831;-64
2022/05/06 08:10:35;;;;;;;;;6.75;6.50;;;;;18.41;48.17;100752.47;5129675;27;8833;-65
2022/05/06 08:13:03;;;;;;;;;9.80;9.40;;;;;18.54;48.02;100760.19;5116565;28;8864;-64
2022/05/06 08:15:31;;;;;;;;;7.00;6.75;;;;;18.65;47.87;100747.31;5116376;28;8863;-63
2022/05/06 08:17:59;;;;;;;;;6.00;6.00;;;;;18.77;48.04;100756.91;5116467;28;8883;-64
2022/05/06 08:20:27;;;;;;;;;1.80;1.80;;;;;18.87;47.86;100749.56;5122485;27;8961;-65
2022/05/06 08:22:55;;;;;;;;;6.00;6.00;;;;;19.00;47.55;100750.03;5137654;27;8997;-64
2022/05/06 08:25:23;;;;;;;;;6.40;6.40;;;;;19.11;47.56;100744.34;5137401;27;8831;-63
2022/05/06 08:28:00;;;;;;;;;4.00;4.00;;;;;19.20;47.31;100743.44;5138012;27;8866;-69
2022/05/06 08:30:27;;;;;;;;;3.00;3.00;;;;;19.28;46.99;100754.31;5131585;27;8834;-64
2022/05/06 08:32:56;;;;;;;;;5.00;4.60;;;;;19.34;47.17;100753.69;5116973;28;8956;-64
2022/05/06 08:35:24;;;;;;;;;6.20;4.80;;;;;19.37;46.97;100755.22;5116000;28;8829;-64
2022/05/06 08:37:52;;;;;;;;;4.40;4.00;;;;;19.37;46.91;100747.97;5116436;28;8960;-64
2022/05/06 08:40:20;;;;;;;;;4.00;4.00;;;;;19.39;46.58;100751.38;5120028;27;8862;-64
2022/05/06 08:42:48;;;;;;;;;4.20;4.00;;;;;19.43;46.65;100747.31;5136836;27;9845;-64
2022/05/06 08:50:54;;;;;;;;;5.80;4.60;;;;;19.65;46.13;100754.91;5127501;27;8947;-64
2022/05/06 08:53:22;;;;;;;;;4.40;4.00;;;;;19.72;46.16;100749.72;5115213;28;9510;-65
2022/05/06 08:55:49;;;;;;;;;5.60;4.40;;;;;19.78;45.93;100752.63;5115349;28;8890;-64
2022/05/06 08:58:18;;;;;;;;;4.80;3.20;;;;;19.84;45.63;100746.56;5115173;28;8845;-64
2022/05/06 09:00:46;;;;;;;;;2.00;2.00;;;;;19.89;45.69;100754.19;5131415;27;8882;-64
2022/05/06 09:03:13;;;;;;;;;7.00;5.00;;;;;19.96;45.37;100739.84;5135123;27;8860;-64
2022/05/06 09:05:41;;;;;;;;;4.40;4.40;;;;;20.06;45.52;100739.75;5136538;27;8979;-65
2022/05/06 09:08:09;;;;;;;;;1.00;1.00;;;;;20.12;45.25;100756.22;5135157;27;8919;-64
2022/05/06 09:10:37;;;;;;;;;5.40;4.80;;;;;20.20;44.91;100748.13;5130448;27;8869;-63
2022/05/06 09:13:05;;;;;;;;;8.80;7.00;;;;;20.25;45.08;100745.75;5129854;27;8930;-64
2022/05/06 09:18:22;;;;;;;;;5.00;5.00;;;;;20.45;44.81;100744.47;5135904;27;8880;-63
2022/05/06 09:20:55;;;;;;;;;9.00;9.00;;;;;20.54;44.32;100742.63;5121954;27;8828;-64
2022/05/06 09:23:24;;;;;;;;;8.40;5.00;;;;;20.61;44.35;100736.38;5115519;28;9660;-63
2022/05/06 09:25:52;;;;;;;;;10.80;9.80;;;;;20.70;44.30;100743.50;5115094;28;8873;-64
2022/05/06 09:28:19;;;;;;;;;7.20;7.20;;;;;20.81;44.02;100737.78;5114789;28;9751;-64
2022/05/06 09:30:46;;;;;;;;;8.00;7.40;;;;;20.96;43.84;100741.53;5126789;27;8916;-64
2022/05/06 09:33:14;;;;;;;;;1.60;1.00;;;;;21.11;43.63;100739.84;5134519;27;8981;-63
2022/05/06 09:35:42;;;;;;;;;9.00;8.20;;;;;21.22;43.71;100740.34;5135086;27;8827;-63
2022/05/06 09:38:10;;;;;;;;;7.60;7.00;;;;;21.35;43.46;100734.41;5134348;27;8843;-64
2022/05/06 09:40:38;;;;;;;;;8.40;8.40;;;;;21.55;43.01;100733.84;5123689;27;8967;-64
2022/05/06 09:43:06;;;;;;;;;9.20;9.20;;;;;21.84;42.57;100733.28;5114472;28;8988;-65
2022/05/06 09:45:34;;;;;;;;;9.60;8.60;;;;;22.17;41.91;100733.00;5115236;28;8864;-64
2022/05/06 09:48:08;;;;;;;;;9.00;9.00;;;;;22.73;40.92;100726.41;5114904;28;8833;-65
2022/05/06 09:50:38;;;;;;;;;5.80;5.80;;;;;23.32;40.57;100723.75;5123017;27;8923;-64
2022/05/06 09:53:06;;;;;;;;;9.20;8.80;;;;;23.83;39.69;100717.41;5134508;27;8851;-65
2022/05/06 09:55:33;;;;;;;;;11.60;10.20;;;;;24.35;39.53;100717.31;5135258;27;8953;-64
2022/05/06 09:58:02;;;;;;;;;5.40;5.40;;;;;24.90;38.58;100717.50;5135331;27;8818;-64
2022/05/06 10:00:29;;;;;;;;;7.40;6.00;;;;;25.40;37.93;100720.09;5125176;27;8849;-64
2022/05/06 10:02:57;;;;;;;;;9.20;7.40;;;;;25.90;37.57;100713.31;5113160;28;8959;-64
2022/05/06 10:05:28;;;;;;;;;7.00;7.00;;;;;26.38;36.87;100717.75;5113759;28;8843;-65
2022/05/06 10:07:56;;;;;;;;;6.80;5.60;;;;;26.68;37.13;100710.94;5114587;28;8883;-67
2022/05/06 10:10:24;;;;;;;;;9.20;8.60;;;;;26.99;36.81;100711.19;5120352;27;8834;-64
2022/05/06 10:12:53;;;;;;;;;12.00;10.40;;;;;27.23;36.31;100718.81;5132852;27;8918;-64
2022/05/06 10:15:21;;;;;;;;;7.00;7.00;;;;;27.47;36.11;100715.44;5132740;27;8857;-65
2022/05/06 10:17:49;;;;;;;;;7.20;7.20;;;;;27.69;35.24;100714.16;5133307;27;9619;-65
2022/05/06 10:20:17;;;;;;;;;9.20;9.20;;;;;27.97;35.58;100711.16;5127295;27;9639;-66
2022/05/06 10:22:45;;;;;;;;;6.60;6.60;;;;;28.25;35.32;100709.81;5108752;28;9016;-65
2022/05/06 10:25:13;;;;;;;;;7.60;6.80;;;;;28.59;35.12;100708.63;5113565;28;8871;-65
2022/05/06 10:33:13;;;;;;;;;8.60;7.80;;;;;29.25;33.92;100699.72;5132627;27;8965;-65
2022/05/06 10:35:41;;;;;;;;;8.20;8.00;;;;;29.44;33.78;100695.13;5133135;27;8842;-68
2022/05/06 10:38:09;;;;;;;;;8.00;7.80;;;;;29.75;33.24;100700.56;5119295;28;9752;-66
2022/05/06 10:40:36;;;;;;;;;9.80;9.00;;;;;30.00;32.93;100696.69;5112988;28;8855;-65
2022/05/06 10:43:05;;;;;;;;;10.00;9.20;;;;;30.26;32.63;100696.38;5111945;28;8955;-65
2022/05/06 10:45:34;;;;;;;;;8.20;8.20;;;;;30.44;33.01;100696.38;5114036;28;8921;-65
2022/05/06 10:48:02;;;;;;;;;9.60;8.60;;;;;30.67;32.21;100681.88;5115114;28;8857;-64
2022/05/06 10:50:32;;;;;;;;;6.40;6.40;;;;;30.93;31.94;100682.31;5131623;27;9597;-64
2022/05/06 10:53:01;;;;;;;;;8.00;8.00;;;;;31.12;32.16;100684.75;5135921;27;8847;-64
2022/05/06 10:55:29;;;;;;;;;9.40;9.40;;;;;31.45;31.34;100675.97;5137099;27;8831;-64
2022/05/06 10:57:57;;;;;;;;;9.20;7.40;;;;;31.70;31.41;100677.41;5136267;27;9828;-65
2022/05/06 11:00:25;;;;;;;;;11.20;10.20;;;;;31.83;30.93;100679.09;5136859;27;8830;-64
2022/05/06 11:02:53;;;;;;;;;11.40;10.40;;;;;31.89;31.66;100683.63;5135005;27;8850;-64
2022/05/06 11:05:21;;;;;;;;;11.00;11.00;;;;;31.40;32.36;100684.09;5136674;27;8897;-64
2022/05/06 11:07:49;;;;;;;;;7.20;6.80;;;;;30.39;33.20;100685.22;5136232;27;8873;-64
2022/05/06 11:10:17;;;;;;;;;11.20;11.00;;;;;29.73;34.06;100692.53;5135460;27;9550;-64
2022/05/06 11:12:45;;;;;;;;;12.20;10.20;;;;;28.44;35.91;100688.88;5136170;27;8830;-65
2022/05/06 11:15:14;;;;;;;;;10.80;10.80;;;;;27.25;37.51;100697.56;5136417;27;9536;-64
2022/05/06 11:17:42;;;;;;;;;12.00;11.00;;;;;27.46;36.63;100694.59;5136806;27;8861;-63
2022/05/06 11:20:10;;;;;;;;;10.00;9.00;;;;;28.16;35.85;100683.69;5131148;27;8811;-64
2022/05/06 11:22:39;;;;;;;;;11.60;11.40;;;;;29.03;34.12;100686.59;5136461;27;8988;-64
2022/05/06 11:25:07;;;;;;;;;10.20;10.00;;;;;29.83;32.77;100672.78;5136497;27;8846;-65
2022/05/06 11:27:37;;;;;;;;;11.20;10.00;;;;;30.49;32.15;100663.47;5136552;27;8861;-65
2022/05/06 11:30:04;;;;;;;;;10.80;10.80;;;;;31.15;31.07;100656.75;5137849;27;8850;-64
2022/05/06 11:32:32;;;;;;;;;11.00;10.00;;;;;31.83;30.36;100657.03;5127224;27;8833;-64
2022/05/06 11:35:00;;;;;;;;;11.80;10.80;;;;;32.33;30.27;100658.13;5116500;28;8859;-65
2022/05/06 11:37:28;;;;;;;;;15.80;10.80;;;;;32.57;29.77;100654.19;5115698;28;8868;-64
2022/05/06 11:40:18;;;;;;;;;11.80;11.00;;;;;32.88;29.10;100656.44;5115884;28;8975;-64
2022/05/06 11:42:44;;;;;;;;;8.20;7.80;;;;;32.93;28.83;100653.78;5116306;28;8992;-65
2022/05/06 11:47:58;;;;;;;;;8.40;8.40;;;;;29.81;33.44;100664.75;5117110;28;8861;-64
2022/05/06 11:50:25;;;;;;;;;9.20;7.80;;;;;28.45;35.68;100665.88;5116770;28;8829;-65
2022/05/06 11:52:54;;;;;;;;;11.00;9.00;;;;;27.33;36.46;100669.97;5116357;27;8968;-64
2022/05/06 11:55:21;;;;;;;;;11.80;10.60;;;;;26.45;38.15;100663.97;5116371;28;8845;-67
2022/05/06 11:57:49;;;;;;;;;9.20;8.60;;;;;25.75;38.58;100668.88;5116698;28;8869;-63
2022/05/06 12:00:17;;;;;;;;;8.40;8.20;;;;;25.18;39.65;100666.59;5124548;27;8838;-64
2022/05/06 12:02:45;;;;;;;;;9.60;9.60;;;;;24.84;40.28;100663.78;5137689;27;8843;-63
2022/05/06 12:05:13;;;;;;;;;10.20;10.20;;;;;25.20;39.24;100661.78;5136971;27;8916;-63
2022/05/06 12:07:41;;;;;;;;;9.80;9.80;;;;;26.55;36.82;100647.22;5136991;27;8854;-63
2022/05/06 12:10:10;;;;;;;;;10.60;9.60;;;;;27.94;34.65;100641.25;5137099;27;8834;-64
2022/05/06 12:12:38;;;;;;;;;13.60;13.20;;;;;29.11;33.47;100646.00;5136871;27;8920;-64
2022/05/06 12:15:10;;;;;;;;;10.60;9.60;;;;;30.18;32.28;100641.72;5136784;27;8835;-64
2022/05/06 12:17:38;;;;;;;;;14.80;11.80;;;;;31.10;30.82;100631.84;5117104;27;8821;-64